createdAt,value
2022-11-22T00:00:53.564Z,-1.23
2022-11-22T00:03:21.672Z,-1.20
2022-11-22T00:05:49.723Z,-1.16
2022-11-22T00:08:17.855Z,-1.14
2022-11-22T00:10:49.099Z,-1.13
2022-11-22T00:13:17.469Z,-1.07
2022-11-22T00:15:45.853Z,-1.08
2022-11-22T00:18:13.939Z,-1.06
2022-11-22T00:20:42.005Z,-1.06
2022-11-22T00:23:10.031Z,-1.10
2022-11-22T00:25:38.091Z,-1.04
2022-11-22T00:28:07.592Z,-1.02
2022-11-22T00:30:35.737Z,-0.98
2022-11-22T00:33:03.821Z,-0.94
2022-11-22T00:35:31.986Z,-0.91
2022-11-22T00:38:00.066Z,-0.91
2022-11-22T00:40:28.160Z,-0.92
2022-11-22T00:42:56.244Z,-0.95
2022-11-22T00:45:25.729Z,-0.91
2022-11-22T00:47:53.843Z,-0.90
2022-11-22T00:50:21.961Z,-0.87
2022-11-22T00:52:49.974Z,-0.84
2022-11-22T00:55:18.200Z,-0.84
2022-11-22T00:57:46.282Z,-0.84
2022-11-22T01:00:14.705Z,-0.81
2022-11-22T01:02:44.211Z,-0.80
2022-11-22T01:05:12.321Z,-0.76
2022-11-22T01:07:40.437Z,-0.75
2022-11-22T01:10:08.896Z,-0.76
2022-11-22T01:12:37.095Z,-0.83
2022-11-22T01:15:05.755Z,-0.82
2022-11-22T01:17:33.962Z,-0.87
2022-11-22T01:20:03.669Z,-0.86
2022-11-22T01:22:31.855Z,-0.87
2022-11-22T01:24:59.977Z,-0.84
2022-11-22T01:27:28.061Z,-0.88
2022-11-22T01:29:56.186Z,-0.89
2022-11-22T01:32:24.606Z,-0.90
2022-11-22T01:34:52.821Z,-0.85
2022-11-22T01:37:22.322Z,-0.82
2022-11-22T01:39:50.404Z,-0.84
2022-11-22T01:42:18.458Z,-0.85
2022-11-22T01:44:48.699Z,-0.79
2022-11-22T01:47:18.623Z,-0.77
2022-11-22T01:49:49.906Z,-0.75
2022-11-22T01:52:19.697Z,-0.75
2022-11-22T01:54:52.752Z,-0.73
2022-11-22T01:57:23.445Z,-0.76
2022-11-22T01:59:53.145Z,-0.73
2022-11-22T02:02:21.252Z,-0.70
2022-11-22T02:04:51.648Z,-0.72
2022-11-22T02:07:22.847Z,-0.74
2022-11-22T02:09:53.266Z,-0.77
2022-11-22T02:12:24.681Z,-0.79
2022-11-22T02:14:53.633Z,-0.78
2022-11-22T02:17:21.767Z,-0.81
2022-11-22T02:19:50.860Z,-0.81
2022-11-22T02:22:29.821Z,-0.83
2022-11-22T02:25:03.449Z,-0.80
2022-11-22T02:27:33.016Z,-0.82
2022-11-22T02:30:01.127Z,-0.85
2022-11-22T02:32:29.278Z,-0.85
2022-11-22T02:34:57.351Z,-0.84
2022-11-22T02:37:26.723Z,-0.83
2022-11-22T02:39:58.422Z,-0.82
2022-11-22T02:42:26.781Z,-0.77
2022-11-22T02:44:56.259Z,-0.77
2022-11-22T02:47:24.299Z,-0.78
2022-11-22T02:49:53.959Z,-0.81
2022-11-22T02:52:22.126Z,-0.79
2022-11-22T02:54:50.175Z,-0.78
2022-11-22T02:57:18.218Z,-0.76
2022-11-22T02:59:46.262Z,-0.77
2022-11-22T03:02:15.719Z,-0.77
2022-11-22T03:04:43.801Z,-0.78
2022-11-22T03:07:11.937Z,-0.75
2022-11-22T03:09:40.005Z,-0.69
2022-11-22T03:12:08.272Z,-0.68
2022-11-22T03:14:36.377Z,-0.68
2022-11-22T03:17:04.443Z,-0.69
2022-11-22T03:19:34.290Z,-0.71
2022-11-22T03:22:02.363Z,-0.66
2022-11-22T03:24:30.408Z,-0.67
2022-11-22T03:26:58.499Z,-0.68
2022-11-22T03:29:26.688Z,-0.74
2022-11-22T03:31:57.606Z,-0.76
2022-11-22T03:34:25.659Z,-0.81
2022-11-22T03:36:55.144Z,-0.84
2022-11-22T03:39:23.251Z,-0.83
2022-11-22T03:41:51.344Z,-0.79
2022-11-22T03:44:19.465Z,-0.78
2022-11-22T03:46:47.897Z,-0.78
2022-11-22T03:49:16.092Z,-0.77
2022-11-22T03:51:44.210Z,-0.78
2022-11-22T03:54:14.264Z,-0.75
2022-11-22T03:56:42.359Z,-0.78
2022-11-22T03:59:10.493Z,-0.86
2022-11-22T04:01:38.669Z,-0.84
2022-11-22T04:04:06.920Z,-0.83
2022-11-22T04:06:35.012Z,-0.83
2022-11-22T04:09:03.181Z,-0.86
2022-11-22T04:11:32.960Z,-0.85
2022-11-22T04:14:18.552Z,-0.84
2022-11-22T04:16:46.596Z,-0.86
2022-11-22T04:19:14.712Z,-0.89
2022-11-22T04:21:41.832Z,-0.85
2022-11-22T04:24:28.200Z,-0.81
2022-11-22T04:26:57.698Z,-0.78
2022-11-22T04:29:25.749Z,-0.78
2022-11-22T04:32:11.774Z,-0.78
2022-11-22T04:34:39.897Z,-0.89
2022-11-22T04:37:07.966Z,-0.86
2022-11-22T04:39:36.098Z,-0.87
2022-11-22T04:42:23.627Z,-0.92
2022-11-22T04:44:51.753Z,-0.85
2022-11-22T04:47:33.913Z,-0.87
2022-11-22T04:50:02.371Z,-0.85
2022-11-22T04:52:48.364Z,-0.87
2022-11-22T04:55:16.459Z,-0.84
2022-11-22T04:57:45.905Z,-0.82
2022-11-22T05:00:14.139Z,-0.82
2022-11-22T05:02:42.192Z,-0.82
2022-11-22T05:05:10.808Z,-0.81
2022-11-22T05:07:38.987Z,-0.82
2022-11-22T05:10:07.480Z,-0.79
2022-11-22T05:12:35.617Z,-0.77
2022-11-22T05:15:06.338Z,-0.73
2022-11-22T05:17:34.479Z,-0.72
2022-11-22T05:20:02.810Z,-0.68
2022-11-22T05:22:44.942Z,-0.71
2022-11-22T05:25:13.032Z,-0.66
2022-11-22T05:27:41.217Z,-0.63
2022-11-22T05:30:11.086Z,-0.62
2022-11-22T05:32:39.121Z,-0.63
2022-11-22T05:35:07.533Z,-0.62
2022-11-22T05:37:35.578Z,-0.60
2022-11-22T05:40:03.672Z,-0.55
2022-11-22T05:42:32.630Z,-0.49
2022-11-22T05:45:00.676Z,-0.44
2022-11-22T05:47:30.121Z,-0.43
2022-11-22T05:49:58.222Z,-0.46
2022-11-22T05:52:26.300Z,-0.40
2022-11-22T05:54:54.373Z,-0.39
2022-11-22T05:57:22.510Z,-0.36
2022-11-22T05:59:50.647Z,-0.35
2022-11-22T06:02:18.859Z,-0.30
2022-11-22T06:04:48.342Z,-0.30
2022-11-22T06:07:16.599Z,-0.29
2022-11-22T06:09:45.452Z,-0.28
2022-11-22T06:12:13.528Z,-0.25
2022-11-22T06:14:43.536Z,-0.21
2022-11-22T06:17:11.880Z,-0.16
2022-11-22T06:19:40.002Z,-0.23
2022-11-22T06:22:10.291Z,-0.20
2022-11-22T06:24:38.364Z,-0.23
2022-11-22T06:27:06.382Z,-0.19
2022-11-22T06:29:34.503Z,-0.13
2022-11-22T06:32:04.019Z,-0.13
2022-11-22T06:34:32.400Z,-0.08
2022-11-22T06:37:01.320Z,-0.04
2022-11-22T06:39:31.243Z,-0.03
2022-11-22T06:41:59.799Z,-0.03
2022-11-22T06:44:27.894Z,-0.01
2022-11-22T06:46:55.938Z,0.01
2022-11-22T06:49:24.035Z,0.05
2022-11-22T06:51:52.179Z,0.09
2022-11-22T06:54:20.372Z,0.11
2022-11-22T06:56:49.962Z,0.09
2022-11-22T06:59:18.071Z,0.10
2022-11-22T07:01:46.260Z,0.15
2022-11-22T07:04:14.370Z,0.19
2022-11-22T07:06:44.308Z,0.21
2022-11-22T07:09:12.926Z,0.23
2022-11-22T07:11:41.292Z,0.23
2022-11-22T07:14:10.891Z,0.23
2022-11-22T07:16:39.415Z,0.24
2022-11-22T07:19:08.164Z,0.24
2022-11-22T07:21:37.543Z,0.27
2022-11-22T07:24:06.806Z,0.28
2022-11-22T07:26:34.875Z,0.30
2022-11-22T07:29:02.992Z,0.32
2022-11-22T07:31:32.550Z,0.34
2022-11-22T07:34:01.111Z,0.39
2022-11-22T07:36:30.533Z,0.44
2022-11-22T07:38:58.644Z,0.47
2022-11-22T07:41:26.810Z,0.50
2022-11-22T07:43:55.822Z,0.53
2022-11-22T07:46:25.067Z,0.56
2022-11-22T07:48:54.583Z,0.55
2022-11-22T07:51:22.741Z,0.58
2022-11-22T07:53:51.072Z,0.60
2022-11-22T07:56:19.254Z,0.58
2022-11-22T07:58:47.407Z,0.61
2022-11-22T08:01:16.806Z,0.58
2022-11-22T08:03:45.115Z,0.63
2022-11-22T08:06:14.882Z,0.66
2022-11-22T08:08:43.087Z,0.64
2022-11-22T08:11:11.527Z,0.65
2022-11-22T08:13:39.649Z,0.65
2022-11-22T08:16:09.669Z,0.68
2022-11-22T08:18:38.757Z,0.70
2022-11-22T08:21:07.807Z,0.71
2022-11-22T08:23:37.784Z,0.72
2022-11-22T08:26:06.552Z,0.71
2022-11-22T08:28:34.728Z,0.72
2022-11-22T08:31:04.895Z,0.76
2022-11-22T08:33:33.043Z,0.76
2022-11-22T08:36:01.137Z,0.81
2022-11-22T08:38:29.234Z,0.85
2022-11-22T08:40:58.988Z,0.88
2022-11-22T08:43:27.153Z,0.91
2022-11-22T08:45:56.172Z,0.94
2022-11-22T08:48:24.362Z,0.99
2022-11-22T08:50:53.130Z,1.00
2022-11-22T08:53:21.466Z,1.01
2022-11-22T08:55:49.536Z,1.04
2022-11-22T08:58:19.060Z,1.06
2022-11-22T09:00:47.256Z,1.04
2022-11-22T09:03:15.293Z,1.06
2022-11-22T09:08:35.926Z,1.13
2022-11-22T09:11:05.708Z,1.13
2022-11-22T09:13:35.375Z,1.17
2022-11-22T09:16:03.920Z,1.16
2022-11-22T09:18:32.206Z,1.18
2022-11-22T09:21:00.621Z,1.17
2022-11-22T09:23:28.815Z,1.18
2022-11-22T09:26:00.208Z,1.19
2022-11-22T09:28:28.521Z,1.23
2022-11-22T09:31:01.891Z,1.25
2022-11-22T09:33:30.043Z,1.25
2022-11-22T09:36:02.264Z,1.23
2022-11-22T09:38:30.719Z,1.27
2022-11-22T09:40:59.487Z,1.27
2022-11-22T09:43:32.426Z,1.28
2022-11-22T09:46:15.312Z,1.27
2022-11-22T09:48:54.515Z,1.34
2022-11-22T09:51:24.636Z,1.37
2022-11-22T09:53:54.515Z,1.36
2022-11-22T09:56:24.358Z,1.39
2022-11-22T09:58:54.191Z,1.43
2022-11-22T10:01:24.732Z,1.44
2022-11-22T10:03:56.191Z,1.47
2022-11-22T10:06:28.017Z,1.44
2022-11-22T10:09:00.744Z,1.47
2022-11-22T10:11:36.740Z,1.46
2022-11-22T10:14:07.989Z,1.49
2022-11-22T10:16:39.829Z,1.54
2022-11-22T10:19:13.186Z,1.52
2022-11-22T10:21:42.301Z,1.53
2022-11-22T10:24:13.544Z,1.54
2022-11-22T10:26:41.938Z,1.60
2022-11-22T10:29:26.290Z,1.55
2022-11-22T10:31:59.476Z,1.58
2022-11-22T10:34:36.554Z,1.61
2022-11-22T10:37:06.713Z,1.63
